Timeline UpdatesTrip UpdatesNews PostsPvt PostsTravel TipsAdmin PostsConv PostsFollowed PostsChat RequestsBlog PostsPNR Posts

Disclaimer
Search
 
 
Fri Apr 25, 2014 00:14:50 ISTHomeTrainsΣChainsAtlasPNRForumGalleryNewsFAQTripsMembersLoginFeedback
No Recent News for this Train
Other Trains in the News **new
Latest...
.
Mon Mar 03, 2014 (11:30AM)
⇐ Return Journey: Train# 13483

13484/Farakka Express (via Faizabad)

Mar 05 2014 (7:09PM)
Change Departure Station:
Change Arrival Station:
Post a Train Travel TipPost a Train Travel Tip **new
Post a Comment/Question/Picture/VideoPost a Comment/Question/Picture/Video
Pantry/Catering
✓ Pantry Car Avbl
✓ Catering Avbl
RSA - Rake Sharing
13413/13414/04031/04032
Rake/Coach Composition
LOCO-SLR-UR-UR-UR-S9-S8-S7-S6-S5-S4-S3-S2-S1-PC-B1-A1-UR-UR-SLR-HCPV
Loco
GZB#WAP7[DLI to LKO] from LKO to MLDT of TKD/LDH shed...
Read more...
/TKD WDM#3D
News    PNR    Forum    Time-Table    Availability    Fare Chart    Map    Arr/Dep History    Trips    Gallery    ΣChains    X/O    Timeline    
Travel Time: 10h 28m    20 halts    Distance: 404 km    Avg Speed: 38 km/hr
Type: Mail/Express
Zone: ER/Eastern
Departs @ 20:52 (Avg 2h 11m late)
Platform# ???
 M W FS
Patna Junction/PNBE 
Arrives @ 07:20 +1 night (Avg 2h 36m late)
Platform# ???
S T T S
Malda Town/MLDT 

20 halts. 92 intermediate Stations between Patna Junction and Malda Town

Show ALL intermediate Stations  Show Old Time-Table

#CodeStation NameX/OArrivesAvgDepartsAvgHaltPFDay#KmSpeedElevZoneAddress
1DLIOld Delhi Junction (16)  -21:50+2371-1058.833219mNRNear Chandni Chowk Metro Station, Delhi NCT
2GZBGhaziabad Junction (6)  22:26+3322:28+412m21-1038.866217mNRGhaziabad, Uttar Pradesh
3KRJKhurja Junction (4)  23:25+1:1723:28+1:173m--1-976.142199mNCRBulandshahr, Uttar Pradesh
4ALJNAligarh Junction (4)  00:30+1:0400:35+1:045m22-932.686192mNCRAligarh, Uttar Pradesh
5HRSHathras Junction (3)XO  00:56+1:1001:01+1:085m--2-902.459183mNCRMahamaya Nagar(05722-242803), Uttar Pradesh
6TDLTundla Junction (4)X  01:50+1:1001:58+1:098m32-854.550167mNCRDistt.Firozabad, Uttar Pradesh
7FZDFirozabad (4)X  02:18+1:1102:20+1:142m22-837.963164mNCRFirozabad, Uttar Pradesh
8SKBShikohabad Junction (4)X  02:39+1:1402:41+1:162m22-818.085166mNCRDistrict Firozabad, Uttar Pradesh
9ETWEtawah (5)X  03:20+1:1903:22+1:222m32-762.665154mNCRDistt. Etawah, Uttar Pradesh
10CNBKanpur Central (10)X  05:30+1:2505:45+1:2815m72-623.350128mNCRKanpur, Uttar Pradesh
11ONUnnao Junction (5)X  06:06+1:3806:08+1:382m--2-605.945129mNRUnnao, Uttar Pradesh
12LKOLucknow Charbagh (9)X  07:20+1:2907:45+1:3225m--2-551.349123mNRCharbagh, Uttar Pradesh
13BBKBarabanki Junction (4)  08:20+1:4208:22+1:442m--2-522.852122mNRPin-225001, Uttar Pradesh
14DYDDaryabad  09:06+1:3709:07+1:371m--2-484.769116mNRFaizabad Rd, Uttar Pradesh
15RDLRudauli (2)  09:27+1:4209:28+1:431m--2-461.672112mNRRudauli, Uttar Pradesh
16SLWSohwal  09:47+1:4509:48+1:451m--2-438.842107mNRFaizabad Rd, Uttar Pradesh
17FDFaizabad Junction (5)X  10:10+1:5210:15+1:535m--2-423.513104mNRFaizabad, Uttar Pradesh
18ACNDAcharya Narendra Dev Nagar  10:25+1:5310:26+1:531m--2-421.312104mNRFaizabad, Uttar Pradesh
19AYAyodhya Junction (3)X  10:48+1:4110:49+1:411m12-416.86698mNRAyodhya, Uttar Pradesh
20GGJGoshainGanj (3)  11:18+1:4311:19+1:431m--2-385.17498mNRGoshainganj, Uttar Pradesh
21ABPAkbarpur (2)  11:37+1:4711:39+1:472m--2-362.97292mNRAkbarpur, Uttar Pradesh
22MLPRMalipur (2)  11:55+1:5211:56+1:521m--2-343.86292mNRMalipur, Uttar Pradesh
23SHGShahganj Junction (4)  12:20+2:0312:25+2:065m--2-318.85090mNRShahganj, Uttar Pradesh
24JNUJaunpur Junction (5)X  13:05+2:0213:07+2:082m12-285.52383mNRJaunpur, Uttar Pradesh
25ZBDZafarabad Junction (4)X  13:24+2:0213:25+2:041m--2-279.03683mNRNational Highway 56, Uttar Pradesh
26JLLJalalGanj (2)  13:45+2:0013:46+2:001m--2-267.03287mNRJalalganj Railway Station, Uttar Pradesh
27BSBVaranasi Junction (9)X  15:00+1:3815:15+1:4215m82-227.81882mNRVaranasi, Uttar Pradesh
28MGSMughal Sarai Junction (8)  16:10+1:3516:25+1:3315m--2-211.47483mECRMughalsarai 232101, Uttar Pradesh
29ZNAZamania  17:01+1:4517:03+1:452m--2-167.16777mECRGhazipur, Uttar Pradesh
30DLNDildarnagar Junction (2)  17:15+1:4717:17+1:472m--2-153.65272mECRDildarnagar, Uttar Pradesh
31BWHBhadaura17:26+1:4717:28+1:472m--2-145.86169mECRGhazipur, Uttar Pradesh
32GMRGahmar (2)X  17:36+1:4717:38+1:492m--2-137.67968mECRDistt: Ghazipur, Uttar Pradesh
33CSAChausa (2)  17:45+1:5417:47+1:552m--2-128.46068mECRState Highway 14, Bihar
34BXRBuxar (3)X  17:58+1:5618:03+1:545m--2-117.48967mECRBuxar, Bihar
35DUREDumraon (3)  18:14+1:5818:16+1:582m--2-101.18070mECRDumraon, Bihar
36RPRRaghunathpur  18:28+2:0318:30+2:042m--2-85.17469mECRRaghunathpur, Bihar
37BEABihiya  18:42+2:0518:44+2:062m--2-70.47167mECRBehea, Bihar
38ARAAra Junction (3)X  19:02+2:1019:07+2:085m--2-48.98963mECRarrah( 06182-233411), Bihar
39BTABihta (2)X  19:22+2:1819:24+2:192m--2-26.73462mECRBihta, Bihar
40DNRDanapur (5)X  19:55+2:1620:05+2:1910m--2-9.41558mECRKhagaul, Bihar
41PNBE»Patna Junction (10)»X  20:42+2:0720:52+2:1110m--20.02257mECRPatna 800001, Bihar
42RJPBRajendra Nagar Bihar (4)  20:59+2:1321:01+2:132m--22.63455mECRPatna 800001, Bihar
43PNCPatna Saheb (3)X  21:14+2:1521:16+2:162m--29.94159mECRPatna, Bihar
44FUTFatwa (6)  21:34+2:1321:36+2:162m--222.15553mECRPatna, Bihar
45BKPBakhtiyarpur Junction (5)XO  22:01+2:1822:05+2:164m--245.13851mECRPatna, Bihar
46BARHBarh (3)  22:34+2:0522:36+2:062m--263.47149mECRBarh, Bihar
47MKAMokama Junction (3)  22:58+2:0723:03+2:045m--289.37148mECRPatna, Bihar
48BRYABarhiya  23:18+2:1223:20+2:122m--2107.02247mECRBarahiya, Bihar
49KIULKiul Junction (5)  00:05+1:5200:10+1:525m--3123.46653mECRDist. Lakhisarai, Bihar
50AHAAbhaipur  00:31+2:0100:33+2:012m--3146.46052mERAbhaipur, Bihar
51JMPJamalpur Junction (4)  00:55+2:0501:05+2:0610m13168.36159mERJamalpur 06344-243101, Bihar
52BUPBariarpur (3)  01:16+2:1101:18+2:112m--3179.45442mERMunger, Bihar
53SGGSultanGanj  01:38+2:0901:40+2:092m--3197.34742mERSultanganj, Bihar
54BGPBhagalpur Junction (6)  02:12+2:0402:22+2:0910m--3222.35749mERBhagalpur, Bihar
55SBOSabaur (3)  02:30+2:1402:32+2:152m--3229.86142mERSabour, Bihar
56CLGKahalgaon (2)  02:54+2:3702:56+2:412m13252.43744mERBhagalpur, Bihar
57PPTPirpainti (2)  03:29+2:4603:31+2:472m--3272.72653mERBhagalpur, Bihar
58SBGSahibganj Junction (3)X  04:25+2:3204:33+2:398m13296.28438mERSahibganj, Jharkhand
59TPHTinpahar Junction (3)X  05:00+3:0305:02+3:042m23334.03345mERBamangawan, Jharkhand
60BHWBarharwa Junction (3)  05:32+2:5605:36+2:574m23350.74036mERBarharwa, Jharkhand
61NFKNew Farakka Junction (3)X  06:03+2:5906:08+2:585m23368.72932mERDist - Murshidabad, West Bengal
62MLDT•Malda Town (5)•  07:20+2:36---3403.8-30mERDist - Malda, West Bengal
Scroll to Top
Scroll to Bottom